Time;durP1;ratioP1;P1;durP2;ratioP2;P2;SDS_P1;SDS_P2;PMS_P1;PMS_P2;Temp;Humidity;BMP_temperature;BMP_pressure;BME280_temperature;BME280_humidity;BME280_pressure;Samples;Min_cycle;Max_cycle;Signal;HPM_P1;HPM_P2
2021/05/04 00:00:32;;;;;;;7.03;3.63;;;6.20;99.90;;;;;;5018500;28;20025;-79
2021/05/04 00:02:57;;;;;;;7.43;4.15;;;6.20;99.90;;;;;;5011167;28;20536;-79
2021/05/04 00:05:23;;;;;;;6.90;2.55;;;6.20;99.90;;;;;;5018830;28;20447;-79
2021/05/04 00:07:48;;;;;;;5.90;3.72;;;6.30;99.90;;;;;;5016559;28;20108;-79
2021/05/04 00:10:14;;;;;;;6.50;3.10;;;6.30;99.90;;;;;;5011127;28;20026;-79
2021/05/04 00:12:39;;;;;;;3.95;2.58;;;6.50;99.90;;;;;;5009857;28;20038;-80
2021/05/04 00:15:09;;;;;;;4.95;2.53;;;6.50;99.90;;;;;;5014124;28;20038;-79
2021/05/04 00:17:35;;;;;;;6.18;3.08;;;6.60;99.90;;;;;;5020237;28;20029;-78
2021/05/04 00:20:00;;;;;;;10.18;2.08;;;6.90;99.90;;;;;;5018604;28;20110;-79
2021/05/04 00:22:26;;;;;;;4.95;2.78;;;7.10;99.90;;;;;;5016999;28;20036;-80
2021/05/04 00:24:51;;;;;;;4.13;2.65;;;7.20;99.90;;;;;;5013283;28;20077;-78
2021/05/04 00:27:16;;;;;;;3.42;2.45;;;7.20;99.90;;;;;;5004428;28;20034;-79
2021/05/04 00:29:42;;;;;;;3.60;2.47;;;7.40;99.90;;;;;;5011498;28;20034;-78
2021/05/04 00:32:07;;;;;;;3.45;2.05;;;7.50;99.90;;;;;;5012216;28;20657;-78
2021/05/04 00:34:33;;;;;;;3.67;2.55;;;7.60;99.90;;;;;;5013727;28;20373;-78
2021/05/04 00:36:58;;;;;;;2.92;2.20;;;7.70;99.90;;;;;;5010749;28;20079;-79
2021/05/04 00:39:27;;;;;;;3.15;2.08;;;7.70;99.90;;;;;;5014829;28;20026;-79
2021/05/04 00:41:53;;;;;;;4.10;2.30;;;7.80;99.90;;;;;;5016931;28;20041;-78
2021/05/04 00:44:19;;;;;;;2.67;2.08;;;8.00;99.90;;;;;;5017106;28;20072;-78
2021/05/04 00:46:44;;;;;;;4.20;2.10;;;8.00;99.90;;;;;;5022807;28;20029;-78
2021/05/04 00:49:10;;;;;;;3.28;2.30;;;8.00;99.90;;;;;;5007973;28;20038;-79
2021/05/04 00:51:36;;;;;;;3.20;2.28;;;8.00;99.90;;;;;;5012266;28;20041;-79
2021/05/04 00:54:02;;;;;;;4.63;2.25;;;8.10;99.90;;;;;;5015286;28;20030;-79
2021/05/04 00:56:29;;;;;;;3.75;2.08;;;8.10;99.90;;;;;;5017176;28;20029;-79
2021/05/04 00:58:57;;;;;;;4.13;1.92;;;8.20;99.30;;;;;;5001003;28;20553;-79
2021/05/04 01:01:23;;;;;;;3.38;2.10;;;8.10;99.90;;;;;;5024399;28;20033;-79
2021/05/04 01:03:50;;;;;;;4.53;2.13;;;8.10;99.90;;;;;;5023174;28;20029;-79
2021/05/04 01:06:15;;;;;;;3.35;2.10;;;8.10;99.90;;;;;;5021064;28;20155;-79
2021/05/04 01:08:41;;;;;;;2.58;1.83;;;8.10;98.70;;;;;;5023201;28;20116;-79
2021/05/04 01:11:06;;;;;;;3.10;1.65;;;8.10;98.60;;;;;;5012259;28;20048;-79
2021/05/04 01:13:32;;;;;;;2.75;2.03;;;8.10;99.50;;;;;;5015437;28;20068;-78
2021/05/04 01:15:57;;;;;;;4.47;2.25;;;8.10;99.10;;;;;;5021934;28;20026;-79
2021/05/04 01:18:23;;;;;;;2.30;1.60;;;8.20;96.80;;;;;;5011080;28;20018;-79
2021/05/04 01:20:51;;;;;;;4.13;2.60;;;8.20;97.00;;;;;;5010632;28;20607;-79
2021/05/04 01:23:17;;;;;;;4.80;2.22;;;8.30;96.30;;;;;;5012733;28;20409;-78
2021/05/04 01:25:43;;;;;;;3.47;1.83;;;8.20;97.20;;;;;;5018842;28;20033;-79
2021/05/04 01:28:09;;;;;;;3.45;1.98;;;8.30;96.40;;;;;;5015334;28;20062;-78
2021/05/04 01:30:35;;;;;;;4.40;2.10;;;8.30;95.90;;;;;;5010369;28;20049;-78
2021/05/04 01:33:01;;;;;;;2.25;1.52;;;8.30;96.60;;;;;;5016203;28;20030;-79
2021/05/04 01:35:27;;;;;;;4.05;2.17;;;8.40;95.40;;;;;;5009161;28;20476;-78
2021/05/04 01:37:54;;;;;;;2.35;1.85;;;8.30;94.70;;;;;;5013219;28;20026;-78
2021/05/04 01:40:20;;;;;;;2.58;1.80;;;8.40;94.60;;;;;;4992687;28;20034;-78
2021/05/04 01:42:46;;;;;;;3.70;1.90;;;8.40;95.80;;;;;;5012509;28;20103;-79
2021/05/04 01:45:13;;;;;;;3.75;2.00;;;8.40;94.40;;;;;;5015119;28;20477;-78
2021/05/04 01:47:40;;;;;;;1.88;1.50;;;8.40;94.00;;;;;;5020762;28;20033;-78
2021/05/04 01:50:06;;;;;;;2.33;1.60;;;8.40;93.80;;;;;;5013087;28;20033;-78
2021/05/04 01:52:32;;;;;;;2.63;1.90;;;8.40;93.50;;;;;;5009841;28;20096;-79
2021/05/04 01:54:59;;;;;;;2.70;1.75;;;8.40;93.30;;;;;;5011495;28;20022;-79
2021/05/04 01:57:24;;;;;;;2.83;2.03;;;8.50;93.30;;;;;;5013681;28;20808;-78
2021/05/04 01:59:50;;;;;;;4.45;2.22;;;8.40;93.80;;;;;;5021650;28;20018;-78
2021/05/04 02:02:15;;;;;;;5.03;1.65;;;8.40;94.10;;;;;;5012907;28;20045;-80
2021/05/04 02:04:41;;;;;;;3.25;1.95;;;8.40;94.20;;;;;;5015044;28;20025;-79
2021/05/04 02:07:06;;;;;;;2.97;1.83;;;8.40;93.90;;;;;;5018992;28;20552;-79
2021/05/04 02:09:32;;;;;;;5.47;2.17;;;8.30;93.80;;;;;;5007558;28;20018;-79
2021/05/04 02:12:01;;;;;;;3.10;1.67;;;8.40;93.50;;;;;;5006645;28;20029;-80
2021/05/04 02:14:27;;;;;;;4.45;2.08;;;8.40;94.30;;;;;;5004306;28;20032;-79
2021/05/04 02:16:52;;;;;;;3.97;2.33;;;8.40;92.20;;;;;;5009518;28;20028;-79
2021/05/04 02:19:18;;;;;;;5.22;2.00;;;8.40;92.40;;;;;;5016504;28;20145;-80
2021/05/04 02:21:43;;;;;;;3.53;1.90;;;8.40;92.90;;;;;;5013821;28;20025;-80
2021/05/04 02:24:09;;;;;;;4.30;2.28;;;8.40;92.40;;;;;;5014798;28;20561;-79
2021/05/04 02:26:34;;;;;;;3.35;2.08;;;8.40;92.70;;;;;;5020177;28;20014;-79
2021/05/04 02:29:00;;;;;;;3.33;1.70;;;8.40;93.30;;;;;;5004802;28;20019;-79
2021/05/04 02:31:25;;;;;;;3.20;1.80;;;8.30;93.10;;;;;;5009211;28;20072;-80
2021/05/04 02:33:51;;;;;;;4.85;2.35;;;8.30;93.00;;;;;;5014260;28;20044;-79
2021/05/04 02:36:17;;;;;;;3.47;1.75;;;8.30;92.80;;;;;;5012612;28;20479;-80
2021/05/04 02:38:42;;;;;;;3.17;1.98;;;8.40;93.30;;;;;;5006453;28;20481;-79
2021/05/04 02:41:09;;;;;;;4.35;2.78;;;8.40;93.50;;;;;;5003810;28;20159;-78
2021/05/04 02:43:35;;;;;;;2.05;1.83;;;8.40;92.90;;;;;;5008718;28;20022;-79
2021/05/04 02:46:02;;;;;;;2.40;1.92;;;8.40;92.00;;;;;;5003862;28;20507;-80
2021/05/04 02:48:27;;;;;;;3.33;2.47;;;8.40;91.70;;;;;;5013987;28;20046;-80
2021/05/04 02:50:53;;;;;;;2.95;2.08;;;8.40;92.00;;;;;;4982889;28;20209;-79
2021/05/04 02:53:19;;;;;;;3.78;2.03;;;8.40;92.10;;;;;;5010247;28;20119;-80
2021/05/04 02:55:44;;;;;;;8.98;2.22;;;8.40;92.60;;;;;;5014712;28;20527;-79
2021/05/04 02:58:10;;;;;;;4.35;2.38;;;8.40;92.30;;;;;;5021262;28;20712;-79
2021/05/04 03:00:36;;;;;;;3.53;2.45;;;8.40;91.80;;;;;;5017227;28;20025;-79
2021/05/04 03:03:01;;;;;;;3.65;2.45;;;8.40;92.40;;;;;;5001521;28;20045;-80
2021/05/04 03:05:27;;;;;;;6.20;3.22;;;8.40;92.70;;;;;;5017341;28;20027;-80
2021/05/04 03:07:52;;;;;;;3.80;2.22;;;8.40;92.40;;;;;;5007078;28;20057;-79
2021/05/04 03:10:18;;;;;;;2.80;1.83;;;8.40;92.90;;;;;;5011298;28;20496;-79
2021/05/04 03:12:43;;;;;;;2.67;2.10;;;8.40;92.10;;;;;;5011549;28;20086;-79
2021/05/04 03:15:10;;;;;;;6.03;2.15;;;8.40;92.70;;;;;;5008780;28;20030;-80
2021/05/04 03:17:35;;;;;;;7.13;2.60;;;8.40;92.70;;;;;;5015995;28;20022;-80
2021/05/04 03:20:01;;;;;;;3.75;2.15;;;8.40;92.70;;;;;;5009185;28;20068;-80
2021/05/04 03:22:26;;;;;;;5.93;2.38;;;8.30;92.20;;;;;;5014184;28;20018;-80
2021/05/04 03:24:52;;;;;;;3.50;2.05;;;8.30;92.30;;;;;;5015547;28;20071;-79
2021/05/04 03:27:17;;;;;;;3.35;2.30;;;8.30;92.30;;;;;;5017432;28;20037;-80
2021/05/04 03:29:43;;;;;;;6.43;2.60;;;8.40;92.30;;;;;;4986368;28;20909;-80
2021/05/04 03:32:09;;;;;;;3.85;2.45;;;8.30;92.80;;;;;;5014225;28;20075;-79
2021/05/04 03:34:37;;;;;;;5.88;3.03;;;8.30;92.70;;;;;;5007630;28;20029;-80
2021/05/04 03:37:05;;;;;;;5.10;2.85;;;8.30;92.50;;;;;;5019390;28;20479;-79
2021/05/04 03:39:31;;;;;;;4.18;2.00;;;8.30;92.00;;;;;;5007359;28;20022;-80
2021/05/04 03:41:56;;;;;;;3.97;2.28;;;8.30;92.00;;;;;;5014227;28;20088;-80
2021/05/04 03:44:22;;;;;;;2.53;1.85;;;8.30;92.00;;;;;;5016082;28;20124;-80
2021/05/04 03:46:48;;;;;;;4.85;2.38;;;8.40;92.20;;;;;;5009426;28;20014;-80
2021/05/04 03:49:13;;;;;;;4.43;2.17;;;8.40;91.80;;;;;;5009246;28;20052;-80
2021/05/04 03:51:39;;;;;;;9.95;2.53;;;8.40;92.10;;;;;;5007418;28;20054;-80
2021/05/04 03:54:05;;;;;;;7.95;2.28;;;8.40;91.70;;;;;;5016034;28;20117;-80
2021/05/04 03:56:31;;;;;;;4.25;2.50;;;8.50;91.80;;;;;;5009779;28;20029;-79
2021/05/04 03:58:56;;;;;;;4.88;2.35;;;8.50;91.50;;;;;;5013200;28;20064;-79
2021/05/04 04:01:22;;;;;;;5.07;2.35;;;8.50;91.90;;;;;;5015997;28;20036;-80
2021/05/04 04:03:48;;;;;;;3.20;2.42;;;8.50;91.70;;;;;;5008009;28;20029;-79
2021/05/04 04:06:14;;;;;;;3.90;2.50;;;8.50;90.90;;;;;;5012555;28;20025;-80
2021/05/04 04:08:40;;;;;;;4.05;2.05;;;8.50;91.10;;;;;;5009875;28;20056;-80
2021/05/04 04:11:05;;;;;;;4.90;2.42;;;8.60;91.20;;;;;;5014138;28;20057;-80
2021/05/04 04:13:33;;;;;;;2.95;2.17;;;8.70;90.50;;;;;;5004131;28;20140;-80
2021/05/04 04:15:58;;;;;;;4.90;2.95;;;8.60;90.50;;;;;;5014350;28;20030;-80
2021/05/04 04:18:24;;;;;;;5.88;2.22;;;8.70;90.90;;;;;;5011879;28;20041;-79
2021/05/04 04:20:50;;;;;;;4.75;2.47;;;8.80;90.10;;;;;;5007945;28;20030;-78
2021/05/04 04:23:15;;;;;;;3.95;2.47;;;8.80;90.20;;;;;;5022217;28;20025;-79
2021/05/04 04:25:40;;;;;;;4.20;2.42;;;8.90;89.40;;;;;;5019180;28;20385;-79
2021/05/04 04:28:06;;;;;;;6.30;3.03;;;9.00;88.30;;;;;;5014053;28;20049;-79
2021/05/04 04:30:31;;;;;;;4.15;2.70;;;9.00;89.00;;;;;;5012356;28;20030;-79
2021/05/04 04:32:57;;;;;;;4.20;2.65;;;9.00;88.30;;;;;;5008720;28;20473;-77
2021/05/04 04:35:22;;;;;;;3.03;2.08;;;9.00;87.90;;;;;;5008207;28;20022;-80
2021/05/04 04:37:48;;;;;;;5.95;2.53;;;9.10;87.40;;;;;;5022092;28;20026;-80
2021/05/04 04:40:14;;;;;;;6.18;2.72;;;9.10;87.70;;;;;;5019193;28;20396;-80
2021/05/04 04:42:44;;;;;;;4.50;2.70;;;9.10;88.50;;;;;;5012881;28;20068;-80
2021/05/04 04:45:11;;;;;;;4.10;2.38;;;9.10;87.70;;;;;;5014352;28;20110;-80
2021/05/04 04:47:36;;;;;;;5.97;2.22;;;9.10;86.70;;;;;;5015733;28;20041;-80
2021/05/04 04:50:02;;;;;;;5.65;2.25;;;9.10;86.40;;;;;;5013480;28;20025;-79
2021/05/04 04:52:27;;;;;;;4.30;2.22;;;9.20;86.80;;;;;;5020785;28;20444;-80
2021/05/04 04:54:53;;;;;;;3.97;2.50;;;9.20;87.10;;;;;;5011138;28;20214;-79
2021/05/04 04:57:19;;;;;;;10.80;3.22;;;9.20;86.40;;;;;;5022428;28;20032;-79
2021/05/04 04:59:54;;;;;;;4.18;2.20;;;9.20;86.40;;;;;;5016618;28;20033;-80
2021/05/04 05:02:19;;;;;;;3.05;2.22;;;9.30;86.00;;;;;;5010136;28;20477;-80
2021/05/04 05:04:48;;;;;;;7.70;2.80;;;9.30;85.30;;;;;;5009326;28;20048;-80
2021/05/04 05:07:13;;;;;;;4.53;2.03;;;9.40;85.10;;;;;;5014591;28;20025;-79
2021/05/04 05:09:39;;;;;;;6.75;2.35;;;9.40;84.60;;;;;;5012474;28;20546;-80
2021/05/04 05:12:06;;;;;;;5.63;2.75;;;9.40;83.90;;;;;;5014321;28;20022;-77
2021/05/04 05:14:34;;;;;;;5.63;3.15;;;9.40;84.50;;;;;;5007913;28;20546;-80
2021/05/04 05:17:03;;;;;;;7.13;3.30;;;9.40;83.90;;;;;;5013720;28;20030;-82
2021/05/04 05:19:28;;;;;;;6.03;3.20;;;9.50;83.80;;;;;;5011801;28;20473;-79
2021/05/04 05:21:54;;;;;;;3.45;2.28;;;9.50;83.00;;;;;;5017420;28;20040;-79
2021/05/04 05:24:20;;;;;;;4.85;2.92;;;9.60;82.40;;;;;;5010843;28;20037;-78
2021/05/04 05:26:45;;;;;;;4.40;2.63;;;9.60;82.30;;;;;;5021592;28;20105;-77
2021/05/04 05:29:11;;;;;;;3.90;2.42;;;9.60;82.50;;;;;;5005535;28;20026;-77
2021/05/04 05:31:37;;;;;;;5.28;2.83;;;9.60;81.80;;;;;;5021890;28;20565;-86
2021/05/04 05:34:03;;;;;;;5.60;3.15;;;9.70;82.40;;;;;;5017233;28;20104;-81
2021/05/04 05:36:30;;;;;;;7.00;2.53;;;9.70;81.80;;;;;;5006511;28;20026;-77
2021/05/04 05:38:55;;;;;;;4.40;2.33;;;9.80;82.20;;;;;;4995103;28;20053;-76
2021/05/04 05:41:21;;;;;;;4.97;2.65;;;9.90;81.10;;;;;;5023123;28;20517;-76
2021/05/04 05:43:47;;;;;;;6.35;2.30;;;9.90;80.50;;;;;;5011817;28;20056;-74
2021/05/04 05:46:12;;;;;;;4.65;2.90;;;10.00;80.50;;;;;;5010202;28;20033;-74
2021/05/04 05:48:38;;;;;;;3.63;2.47;;;10.10;81.30;;;;;;5014629;28;20653;-75
2021/05/04 05:51:04;;;;;;;6.00;3.20;;;10.20;80.30;;;;;;5006146;28;20493;-75
2021/05/04 05:53:31;;;;;;;3.97;2.53;;;10.20;78.80;;;;;;5007193;28;20133;-75
2021/05/04 05:55:56;;;;;;;10.07;2.83;;;10.20;78.80;;;;;;5008665;28;20056;-76
2021/05/04 05:58:22;;;;;;;5.57;2.85;;;10.30;79.10;;;;;;5010658;28;20602;-75
2021/05/04 06:00:50;;;;;;;6.85;2.83;;;10.30;79.40;;;;;;5011603;28;20037;-76
2021/05/04 06:03:16;;;;;;;9.52;3.00;;;10.30;78.90;;;;;;5004395;28;20489;-76
2021/05/04 06:05:41;;;;;;;3.53;2.63;;;10.40;78.20;;;;;;5014407;28;20056;-75
2021/05/04 06:08:07;;;;;;;4.68;2.65;;;10.40;78.50;;;;;;5012289;28;20049;-77
2021/05/04 06:10:32;;;;;;;3.63;2.38;;;10.50;78.10;;;;;;5010883;28;20033;-75
2021/05/04 06:13:05;;;;;;;4.32;2.28;;;10.60;78.00;;;;;;5004189;28;20068;-73
2021/05/04 06:15:31;;;;;;;4.03;2.35;;;10.70;77.10;;;;;;5013783;28;20029;-74
2021/05/04 06:17:57;;;;;;;3.30;2.47;;;10.80;76.60;;;;;;5015960;28;20096;-79
2021/05/04 06:20:29;;;;;;;5.28;2.72;;;10.90;76.40;;;;;;5010805;28;20124;-75
2021/05/04 06:22:54;;;;;;;3.88;2.35;;;11.00;76.00;;;;;;5015649;28;20412;-73
2021/05/04 06:25:20;;;;;;;5.47;3.08;;;11.20;75.70;;;;;;5017069;28;20077;-73
2021/05/04 06:27:46;;;;;;;5.00;2.92;;;11.20;75.30;;;;;;5015727;28;20638;-74
2021/05/04 06:30:13;;;;;;;3.65;2.40;;;11.30;75.10;;;;;;5016185;28;20025;-74
2021/05/04 06:32:43;;;;;;;5.22;2.80;;;11.40;76.90;;;;;;5013392;28;20045;-74
2021/05/04 06:35:09;;;;;;;3.90;2.55;;;11.60;75.70;;;;;;5021071;28;20029;-73
2021/05/04 06:37:46;;;;;;;6.68;2.97;;;11.70;73.30;;;;;;5017465;28;20583;-73
2021/05/04 06:40:12;;;;;;;4.05;2.60;;;11.70;73.50;;;;;;5012888;28;20022;-74
2021/05/04 06:42:38;;;;;;;7.13;2.47;;;11.80;73.80;;;;;;5013320;28;20056;-74
2021/05/04 06:45:06;;;;;;;4.65;2.35;;;11.80;72.20;;;;;;5010880;28;20052;-74
2021/05/04 06:47:34;;;;;;;5.13;2.88;;;11.90;72.60;;;;;;5014562;28;20534;-74
2021/05/04 06:50:00;;;;;;;3.75;2.40;;;12.00;70.70;;;;;;5014439;28;20048;-73
2021/05/04 06:52:25;;;;;;;3.75;2.40;;;12.10;70.50;;;;;;5015681;28;20053;-73
2021/05/04 06:54:51;;;;;;;4.25;2.10;;;12.20;70.00;;;;;;5009841;28;20042;-73
2021/05/04 06:57:17;;;;;;;3.58;2.22;;;12.20;69.10;;;;;;5010575;28;20377;-74
2021/05/04 06:59:43;;;;;;;4.03;2.20;;;12.20;68.60;;;;;;5010480;28;20048;-73
2021/05/04 07:02:08;;;;;;;6.30;2.50;;;12.30;69.30;;;;;;5009997;28;20017;-73
2021/05/04 07:04:36;;;;;;;3.38;2.28;;;12.30;68.30;;;;;;5011376;28;20036;-74
2021/05/04 07:07:02;;;;;;;4.78;2.50;;;12.40;67.30;;;;;;4994617;28;20032;-73
2021/05/04 07:09:28;;;;;;;4.43;2.58;;;12.40;67.80;;;;;;5011913;28;20476;-74
2021/05/04 07:11:53;;;;;;;4.53;2.10;;;12.40;67.30;;;;;;5015712;28;20029;-73
2021/05/04 07:14:19;;;;;;;4.88;2.60;;;12.50;67.50;;;;;;5019178;28;20100;-73
2021/05/04 07:16:45;;;;;;;4.93;2.65;;;12.50;67.10;;;;;;5014520;28;20103;-74
2021/05/04 07:19:11;;;;;;;4.32;2.38;;;12.40;66.70;;;;;;5011750;28;20086;-76
2021/05/04 07:21:36;;;;;;;6.25;2.53;;;12.40;68.50;;;;;;5012424;28;20034;-75
2021/05/04 07:24:02;;;;;;;3.83;2.50;;;12.40;67.00;;;;;;5013681;28;20116;-74
2021/05/04 07:26:28;;;;;;;3.60;2.25;;;12.50;67.10;;;;;;5011103;28;20025;-74
2021/05/04 07:28:53;;;;;;;14.68;2.17;;;12.50;66.60;;;;;;5015536;28;20036;-73
2021/05/04 07:31:19;;;;;;;6.40;2.65;;;12.50;66.60;;;;;;5014591;28;20490;-72
2021/05/04 07:33:44;;;;;;;3.80;1.98;;;12.50;66.90;;;;;;5014724;28;20040;-76
2021/05/04 07:36:10;;;;;;;3.05;2.20;;;12.50;66.40;;;;;;5019371;28;20048;-76
2021/05/04 07:38:35;;;;;;;4.85;2.50;;;12.50;65.30;;;;;;5018948;28;20096;-72
2021/05/04 07:41:01;;;;;;;4.95;2.90;;;12.50;66.50;;;;;;5016183;28;20395;-73
2021/05/04 07:43:26;;;;;;;5.00;2.00;;;12.50;67.60;;;;;;5014006;28;20030;-77
2021/05/04 07:45:52;;;;;;;3.35;2.08;;;12.50;70.80;;;;;;5017659;28;20021;-73
2021/05/04 07:48:18;;;;;;;3.08;2.15;;;12.30;73.80;;;;;;5016224;28;20036;-74
2021/05/04 07:50:44;;;;;;;6.57;2.35;;;12.20;77.40;;;;;;5020720;28;20052;-75
2021/05/04 07:53:10;;;;;;;3.42;2.10;;;12.00;79.30;;;;;;5021165;28;20029;-74
2021/05/04 07:55:35;;;;;;;10.70;2.67;;;11.90;82.30;;;;;;5022356;28;20383;-73
2021/05/04 07:58:01;;;;;;;3.83;2.58;;;11.70;85.50;;;;;;5020897;28;20025;-74
2021/05/04 08:00:26;;;;;;;10.38;2.10;;;11.70;89.20;;;;;;5016291;28;20539;-74
2021/05/04 08:02:52;;;;;;;4.18;2.28;;;11.70;90.00;;;;;;5016866;28;20029;-74
2021/05/04 08:05:18;;;;;;;2.13;1.70;;;11.60;89.70;;;;;;5021374;28;20021;-74
2021/05/04 08:07:43;;;;;;;3.47;1.85;;;11.50;89.70;;;;;;5025294;28;20120;-73
2021/05/04 08:10:10;;;;;;;3.10;2.28;;;11.50;90.80;;;;;;5022899;28;20040;-72
2021/05/04 08:12:37;;;;;;;2.90;1.98;;;11.50;89.50;;;;;;5022656;28;20020;-75
2021/05/04 08:15:06;;;;;;;4.90;1.90;;;11.70;90.00;;;;;;5021458;28;20108;-76
2021/05/04 08:17:35;;;;;;;4.80;2.28;;;11.80;87.70;;;;;;5017906;28;20028;-76
2021/05/04 08:20:03;;;;;;;3.10;2.00;;;11.90;85.50;;;;;;5018042;28;20037;-76
2021/05/04 08:22:29;;;;;;;5.38;2.13;;;12.00;86.60;;;;;;5021008;28;20498;-77
2021/05/04 08:24:56;;;;;;;3.83;2.20;;;12.10;84.80;;;;;;5018231;28;20076;-76
2021/05/04 08:27:21;;;;;;;4.55;2.13;;;12.30;85.40;;;;;;5020423;28;20842;-76
2021/05/04 08:29:47;;;;;;;3.38;2.33;;;12.40;85.20;;;;;;5005717;28;20033;-76
2021/05/04 08:32:12;;;;;;;2.55;1.77;;;12.40;83.70;;;;;;5022755;28;20121;-75
2021/05/04 08:34:38;;;;;;;4.78;2.40;;;12.50;82.00;;;;;;5021479;28;20363;-76
2021/05/04 08:37:05;;;;;;;2.90;1.80;;;12.50;83.20;;;;;;5021971;28;20048;-75
2021/05/04 08:39:30;;;;;;;3.42;1.98;;;12.50;82.70;;;;;;5023063;28;20134;-75
2021/05/04 08:41:56;;;;;;;2.80;2.13;;;12.50;81.90;;;;;;5023757;28;20051;-75
2021/05/04 08:44:22;;;;;;;3.53;2.10;;;12.60;82.60;;;;;;5023100;28;20041;-76
2021/05/04 08:46:49;;;;;;;7.20;2.20;;;12.70;83.00;;;;;;5025502;28;20025;-76
2021/05/04 08:49:17;;;;;;;3.28;1.70;;;12.80;81.10;;;;;;5020337;28;20041;-77
2021/05/04 08:51:44;;;;;;;4.28;2.28;;;12.80;80.80;;;;;;5017748;28;20042;-75
2021/05/04 08:54:09;;;;;;;4.38;3.08;;;12.90;80.30;;;;;;5018275;28;20040;-75
2021/05/04 08:56:35;;;;;;;2.47;1.60;;;13.10;80.20;;;;;;5018919;28;20084;-75
2021/05/04 08:59:02;;;;;;;2.67;1.90;;;13.20;77.70;;;;;;5023346;28;20034;-76
2021/05/04 09:01:28;;;;;;;2.88;1.60;;;13.30;77.80;;;;;;5022740;28;20100;-75
2021/05/04 09:03:58;;;;;;;2.03;1.70;;;13.50;77.80;;;;;;5024272;28;20068;-75
2021/05/04 09:06:39;;;;;;;9.70;1.80;;;13.70;75.80;;;;;;5023110;28;20099;-76
2021/05/04 09:09:18;;;;;;;3.43;1.90;;;13.60;74.90;;;;;;5016607;28;20284;-76
2021/05/04 09:11:59;;;;;;;3.75;1.98;;;13.80;74.40;;;;;;5015704;28;20337;-76
2021/05/04 09:17:21;;;;;;;2.10;1.40;;;14.00;72.60;;;;;;5016531;28;20113;-76
2021/05/04 09:20:06;;;;;;;4.78;1.45;;;14.00;73.10;;;;;;5015092;28;20034;-76
2021/05/04 09:22:40;;;;;;;6.05;1.83;;;14.00;72.30;;;;;;5020818;28;20025;-76
2021/05/04 09:25:27;;;;;;;5.70;1.65;;;14.20;72.90;;;;;;5019707;28;20025;-76
2021/05/04 09:28:19;;;;;;;3.70;1.88;;;14.30;71.70;;;;;;5018347;28;20500;-80
2021/05/04 09:30:56;;;;;;;2.85;1.75;;;14.60;70.30;;;;;;5018096;28;20040;-82
2021/05/04 09:33:22;;;;;;;2.58;1.63;;;14.90;67.90;;;;;;5016662;28;20488;-78
2021/05/04 09:35:48;;;;;;;2.65;1.60;;;15.20;69.40;;;;;;5016739;28;20050;-76
2021/05/04 09:38:19;;;;;;;1.85;1.30;;;15.50;65.10;;;;;;5016404;28;20087;-79
2021/05/04 09:40:46;;;;;;;2.67;1.45;;;15.30;63.10;;;;;;5023386;28;20022;-74
2021/05/04 09:43:20;;;;;;;1.98;1.40;;;15.20;63.40;;;;;;5002791;28;20107;-78
2021/05/04 09:45:53;;;;;;;2.72;1.52;;;15.20;63.40;;;;;;5021801;28;20026;-78
2021/05/04 09:48:24;;;;;;;1.50;1.17;;;15.10;62.70;;;;;;5015468;28;20025;-80
2021/05/04 09:50:52;;;;;;;2.25;1.42;;;15.00;61.40;;;;;;5015109;28;20076;-80
2021/05/04 09:53:40;;;;;;;1.45;1.25;;;14.70;62.00;;;;;;5016143;28;20478;-79
2021/05/04 09:56:07;;;;;;;1.90;1.23;;;14.60;62.80;;;;;;5016542;28;20034;-79
2021/05/04 09:58:45;;;;;;;5.55;1.52;;;14.70;62.00;;;;;;5016449;28;20036;-73
2021/05/04 10:01:14;;;;;;;1.73;1.33;;;14.90;59.40;;;;;;5013951;28;20144;-73
2021/05/04 10:03:42;;;;;;;3.17;1.50;;;15.10;58.90;;;;;;5016259;28;20025;-78
2021/05/04 10:06:10;;;;;;;2.53;1.52;;;15.10;60.00;;;;;;5019455;28;20049;-77
2021/05/04 10:08:37;;;;;;;3.08;1.05;;;15.10;60.00;;;;;;5017385;28;20029;-76
2021/05/04 10:11:08;;;;;;;2.65;1.42;;;15.00;59.20;;;;;;5007212;28;20540;-76
2021/05/04 10:13:35;;;;;;;;;;;15.00;59.00;;;;;;5016548;28;20030;-76
2021/05/04 10:16:02;;;;;;;1.63;1.00;;;15.00;59.50;;;;;;5018263;28;19913;-75
2021/05/04 10:18:28;;;;;;;2.13;1.25;;;15.00;58.60;;;;;;5015237;28;20029;-76
2021/05/04 10:20:56;;;;;;;1.75;1.10;;;14.80;59.40;;;;;;5020996;28;20531;-76
2021/05/04 10:23:23;;;;;;;1.55;1.05;;;14.80;59.20;;;;;;5014157;28;20036;-76
2021/05/04 10:25:54;;;;;;;1.65;1.13;;;15.00;59.30;;;;;;5014461;28;20049;-76
2021/05/04 10:28:21;;;;;;;0.87;0.87;;;15.20;58.80;;;;;;5018633;28;20048;-76
2021/05/04 10:30:47;;;;;;;3.75;2.08;;;15.40;57.70;;;;;;5021347;28;20033;-76
2021/05/04 10:33:30;;;;;;;7.53;1.13;;;15.20;58.80;;;;;;5016937;28;20450;-78
2021/05/04 10:35:56;;;;;;;1.65;1.20;;;15.20;57.90;;;;;;5017240;28;20052;-78
2021/05/04 10:38:21;;;;;;;1.90;1.20;;;15.20;58.00;;;;;;5018196;28;20456;-77
2021/05/04 10:41:05;;;;;;;3.47;1.40;;;15.00;58.20;;;;;;5014245;28;20388;-77
2021/05/04 10:43:30;;;;;;;1.70;1.40;;;14.80;60.30;;;;;;5020444;28;20112;-77
2021/05/04 10:45:57;;;;;;;2.65;1.45;;;14.70;59.40;;;;;;5020667;28;20124;-74
2021/05/04 10:48:38;;;;;;;1.63;1.13;;;14.70;60.10;;;;;;5016382;28;20033;-78
2021/05/04 10:51:19;;;;;;;5.32;1.95;;;14.60;59.10;;;;;;5088648;27;20383;-72
2021/05/04 10:53:53;;;;;;;14.15;1.92;;;14.50;59.30;;;;;;5091404;27;20034;-75
2021/05/04 10:56:41;;;;;;;2.90;1.42;;;14.50;60.20;;;;;;5092267;28;20466;-76
2021/05/04 10:59:10;;;;;;;2.15;1.13;;;14.50;60.30;;;;;;5093069;28;20013;-75
2021/05/04 11:01:36;;;;;;;2.35;1.20;;;14.60;60.20;;;;;;5093374;28;20645;-76
2021/05/04 11:04:03;;;;;;;1.88;1.33;;;14.80;60.10;;;;;;5090450;28;20032;-74
2021/05/04 11:06:29;;;;;;;3.63;1.23;;;14.80;59.80;;;;;;5086634;28;20055;-77
2021/05/04 11:08:55;;;;;;;1.45;1.00;;;14.70;59.20;;;;;;5090172;28;20373;-78
2021/05/04 11:11:22;;;;;;;2.83;1.23;;;14.60;59.80;;;;;;5090221;28;20020;-84
2021/05/04 11:13:53;;;;;;;1.23;1.00;;;14.40;59.90;;;;;;5092496;28;21326;-83
2021/05/04 11:16:31;;;;;;;2.38;1.20;;;14.30;60.60;;;;;;5093457;28;20028;-76
2021/05/04 11:19:07;;;;;;;1.23;0.90;;;14.30;60.90;;;;;;5091332;28;21105;-81
2021/05/04 11:22:02;;;;;;;2.55;0.82;;;14.60;61.10;;;;;;5088412;28;20385;-79
2021/05/04 11:24:30;;;;;;;3.83;1.35;;;15.00;60.70;;;;;;5093188;28;20106;-79
2021/05/04 11:26:57;;;;;;;2.42;1.40;;;15.50;58.80;;;;;;5086905;28;20080;-76
2021/05/04 11:29:32;;;;;;;1.83;1.20;;;16.00;58.70;;;;;;5091521;28;20647;-77
2021/05/04 11:32:19;;;;;;;3.13;1.40;;;16.30;57.20;;;;;;5095411;28;20020;-77
2021/05/04 11:34:51;;;;;;;2.75;1.10;;;16.30;56.90;;;;;;5096748;28;20028;-78
2021/05/04 11:37:20;;;;;;;2.25;1.05;;;16.50;57.20;;;;;;5092987;28;20103;-80
2021/05/04 11:39:58;;;;;;;0.98;0.75;;;16.90;56.60;;;;;;5093055;28;20434;-79
2021/05/04 11:42:39;;;;;;;3.45;0.93;;;16.90;56.10;;;;;;5084961;28;20118;-80
2021/05/04 11:45:14;;;;;;;7.57;0.82;;;16.40;57.20;;;;;;5092131;28;20024;-81
2021/05/04 11:47:48;;;;;;;0.95;0.90;;;16.10;57.90;;;;;;5092991;28;20120;-79
2021/05/04 11:50:19;;;;;;;3.17;0.90;;;15.70;59.00;;;;;;5092542;28;20050;-82
2021/05/04 11:52:51;;;;;;;1.25;1.08;;;15.50;59.40;;;;;;5095509;28;20047;-79
2021/05/04 11:55:40;;;;;;;0.95;0.88;;;15.30;60.00;;;;;;5094538;28;20550;-80
2021/05/04 11:58:28;;;;;;;4.80;0.90;;;15.30;60.90;;;;;;5094629;28;20028;-79
2021/05/04 12:00:58;;;;;;;1.27;0.73;;;15.30;60.30;;;;;;5090249;28;20050;-81
2021/05/04 12:03:24;;;;;;;0.93;0.88;;;15.30;60.50;;;;;;5080382;28;20077;-79
2021/05/04 12:05:50;;;;;;;6.25;1.42;;;15.20;60.10;;;;;;5079735;28;20035;-80
2021/05/04 12:08:16;;;;;;;1.33;0.80;;;15.30;60.70;;;;;;5082606;28;20435;-80
2021/05/04 12:10:49;;;;;;;0.77;0.77;;;15.30;60.40;;;;;;5084472;28;20040;-78
2021/05/04 12:13:21;;;;;;;1.15;0.80;;;15.20;59.70;;;;;;5085303;28;20020;-81
2021/05/04 12:15:49;;;;;;;0.93;0.85;;;15.20;60.70;;;;;;5081798;28;20048;-80
2021/05/04 12:18:17;;;;;;;5.20;1.13;;;15.20;60.40;;;;;;5079980;28;20020;-78
2021/05/04 12:20:45;;;;;;;1.17;0.70;;;15.30;60.30;;;;;;5081273;28;20478;-81
2021/05/04 12:23:13;;;;;;;1.20;0.93;;;15.30;60.30;;;;;;5086937;28;20040;-78
2021/05/04 12:25:43;;;;;;;5.75;0.90;;;15.20;60.20;;;;;;5087617;28;20020;-81
2021/05/04 12:28:13;;;;;;;0.85;0.70;;;15.10;60.60;;;;;;5084962;28;20036;-81
2021/05/04 12:30:38;;;;;;;0.82;0.80;;;15.10;61.40;;;;;;5074742;28;20028;-82
2021/05/04 12:33:04;;;;;;;8.65;1.27;;;15.10;60.80;;;;;;5085859;28;20035;-79
2021/05/04 12:38:35;;;;;;;3.75;1.05;;;14.90;60.80;;;;;;5085300;28;20371;-79
2021/05/04 12:41:16;;;;;;;0.95;0.65;;;14.90;62.20;;;;;;5078141;28;20047;-81
2021/05/04 12:44:10;;;;;;;1.55;0.90;;;14.90;61.60;;;;;;5067959;28;20024;-83
2021/05/04 12:46:44;;;;;;;1.27;1.00;;;15.00;61.40;;;;;;5082424;28;20024;-79
2021/05/04 12:49:12;;;;;;;2.28;1.00;;;15.20;61.50;;;;;;5080334;28;20052;-80
2021/05/04 12:51:47;;;;;;;1.10;0.82;;;15.70;60.00;;;;;;5084589;28;20456;-80
2021/05/04 12:54:18;;;;;;;1.42;0.90;;;16.50;59.20;;;;;;5086581;28;20110;-79
2021/05/04 12:56:46;;;;;;;1.25;1.10;;;16.80;57.10;;;;;;5085952;28;20062;-81
2021/05/04 12:59:25;;;;;;;1.73;0.93;;;16.80;56.90;;;;;;5082732;28;20054;-80